Time;durP1;ratioP1;P1;durP2;ratioP2;P2;SDS_P1;SDS_P2;PMS_P1;PMS_P2;Temp;Humidity;BMP_temperature;BMP_pressure;BME280_temperature;BME280_humidity;BME280_pressure;Samples;Min_cycle;Max_cycle;Signal;HPM_P1;HPM_P2
2023/05/26 00:02:13;;;;;;;8.13;3.63;;;;;;;41.55;36.42;101008.69;4993678;28;20464;-84
2023/05/26 00:04:42;;;;;;;9.10;4.83;;;;;;;41.62;35.78;101008.19;4994476;28;20931;-86
2023/05/26 00:07:09;;;;;;;10.17;3.43;;;;;;;41.48;35.55;100994.00;4994899;28;20390;-85
2023/05/26 00:09:35;;;;;;;12.97;3.23;;;;;;;41.55;35.73;100988.81;4993767;28;20431;-84
2023/05/26 00:12:01;;;;;;;8.43;4.03;;;;;;;41.60;35.26;100991.38;4993804;28;20417;-84
2023/05/26 00:14:28;;;;;;;9.43;3.50;;;;;;;41.52;35.38;100976.69;4994871;28;20193;-82
2023/05/26 00:16:59;;;;;;;8.73;3.27;;;;;;;41.59;35.14;100989.78;4994638;28;20420;-83
2023/05/26 00:19:25;;;;;;;10.60;2.80;;;;;;;41.56;35.55;100974.09;4973207;28;20433;-82
2023/05/26 00:21:51;;;;;;;8.30;4.17;;;;;;;41.50;35.73;100973.50;4977869;28;20531;-81
2023/05/26 00:24:17;;;;;;;14.70;6.23;;;;;;;41.36;35.73;100975.63;4993419;28;20496;-81
2023/05/26 00:26:43;;;;;;;8.83;4.67;;;;;;;41.40;35.93;100983.94;4966847;28;20206;-81
2023/05/26 00:29:17;;;;;;;9.73;3.60;;;;;;;41.41;35.97;100980.09;4974158;28;20470;-81
2023/05/26 00:31:44;;;;;;;10.30;4.47;;;;;;;41.42;36.04;100965.34;4974539;28;20194;-82
2023/05/26 00:34:10;;;;;;;16.40;4.97;;;;;;;41.38;36.16;100962.50;4973936;28;21002;-82
2023/05/26 00:36:37;;;;;;;8.80;3.33;;;;;;;41.20;36.41;100969.13;4974088;28;20771;-84
2023/05/26 00:39:03;;;;;;;13.40;3.87;;;;;;;41.31;36.25;100971.16;4995756;28;20472;-83
2023/05/26 00:41:29;;;;;;;10.80;5.17;;;;;;;41.34;35.79;100964.28;4996572;28;20424;-84
2023/05/26 00:43:55;;;;;;;13.33;4.40;;;;;;;41.39;35.65;100957.84;4996330;28;20424;-84
2023/05/26 00:46:21;;;;;;;14.10;5.43;;;;;;;41.39;35.88;100953.22;4996662;28;20417;-84
2023/05/26 00:48:47;;;;;;;9.70;4.20;;;;;;;41.39;35.75;100947.75;4996256;28;20480;-84
2023/05/26 00:51:13;;;;;;;17.10;5.50;;;;;;;41.47;35.67;100943.38;4996279;28;20512;-84
2023/05/26 00:53:43;;;;;;;18.67;4.47;;;;;;;41.46;35.46;100933.63;4995953;28;20639;-84
2023/05/26 00:56:16;;;;;;;11.83;4.07;;;;;;;41.44;35.51;100944.84;4996224;28;20514;-83
2023/05/26 00:58:43;;;;;;;11.40;5.47;;;;;;;41.50;35.55;100948.19;4996738;28;21047;-83
2023/05/26 01:01:10;;;;;;;10.60;4.13;;;;;;;41.50;35.18;100953.63;4992771;28;20445;-83
2023/05/26 01:03:38;;;;;;;11.90;5.33;;;;;;;41.43;35.48;100958.78;4993268;28;20417;-84
2023/05/26 01:06:05;;;;;;;14.70;4.87;;;;;;;41.45;35.51;100956.53;4993297;28;20512;-83
2023/05/26 01:08:32;;;;;;;8.23;3.60;;;;;;;41.50;35.10;100957.16;4992584;28;20863;-83
2023/05/26 01:11:07;;;;;;;22.67;5.57;;;;;;;41.47;35.55;100954.28;4996155;28;20783;-86
2023/05/26 01:13:52;;;;;;;16.17;5.10;;;;;;;41.51;35.89;100947.06;4995911;28;20459;-85
2023/05/26 01:16:22;;;;;;;14.77;5.70;;;;;;;41.52;35.87;100946.72;4992487;28;20422;-84
2023/05/26 01:19:06;;;;;;;15.80;5.80;;;;;;;41.52;35.72;100945.94;4991820;28;20505;-84
2023/05/26 01:21:35;;;;;;;16.40;7.03;;;;;;;41.52;35.71;100935.84;4995857;28;20448;-85
2023/05/26 01:24:49;;;;;;;14.93;5.13;;;;;;;41.59;35.62;100946.19;4995636;28;20417;-84
2023/05/26 01:27:32;;;;;;;13.13;4.67;;;;;;;41.57;35.63;100948.47;4979106;28;20935;-85
2023/05/26 01:29:58;;;;;;;11.10;4.43;;;;;;;41.63;35.66;100946.34;4992624;28;20416;-84
2023/05/26 01:32:24;;;;;;;12.97;4.63;;;;;;;41.54;35.72;100928.13;4992451;28;20476;-84
2023/05/26 01:34:50;;;;;;;19.27;5.10;;;;;;;41.50;35.92;100926.41;4992289;28;20787;-84
2023/05/26 01:37:17;;;;;;;16.63;5.40;;;;;;;41.54;35.95;100921.88;4992437;28;20551;-84
2023/05/26 01:39:43;;;;;;;13.73;6.00;;;;;;;41.40;36.13;100913.97;4992302;28;20425;-85
2023/05/26 01:42:27;;;;;;;12.47;5.90;;;;;;;41.32;36.80;100912.88;4992284;28;20417;-84
2023/05/26 01:45:05;;;;;;;13.90;5.73;;;;;;;41.43;36.89;100916.00;4995383;28;20423;-84
2023/05/26 01:47:31;;;;;;;9.80;5.47;;;;;;;41.38;37.27;100912.72;4995507;28;20970;-84
2023/05/26 01:50:01;;;;;;;20.37;7.50;;;;;;;41.47;37.03;100910.72;4995519;28;20412;-84
2023/05/26 01:52:27;;;;;;;18.33;5.30;;;;;;;41.48;36.93;100909.59;4995209;28;20464;-84
2023/05/26 01:55:00;;;;;;;14.07;4.77;;;;;;;41.41;37.49;100895.69;5012830;28;20463;-86
2023/05/26 01:57:28;;;;;;;16.77;5.77;;;;;;;41.45;37.69;100891.19;4995180;28;20482;-86
2023/05/26 01:59:55;;;;;;;10.43;4.87;;;;;;;41.50;37.48;100888.28;4995317;28;20898;-86
2023/05/26 02:02:21;;;;;;;20.50;5.63;;;;;;;41.40;37.29;100885.94;5012770;28;20437;-84
2023/05/26 02:04:47;;;;;;;10.40;4.50;;;;;;;41.46;37.42;100887.34;4995926;28;20518;-84
2023/05/26 02:07:14;;;;;;;19.63;7.33;;;;;;;41.48;37.09;100898.69;4995124;28;20431;-84
2023/05/26 02:09:40;;;;;;;12.07;5.60;;;;;;;41.33;37.59;100895.44;4995249;28;20404;-85
2023/05/26 02:12:06;;;;;;;17.53;6.60;;;;;;;41.31;37.76;100891.38;4995077;28;20415;-84
2023/05/26 02:14:32;;;;;;;15.30;6.73;;;;;;;41.37;37.41;100890.09;4995087;28;20425;-85
2023/05/26 02:16:58;;;;;;;13.90;5.83;;;;;;;41.43;37.21;100887.97;4995127;28;20946;-84
2023/05/26 02:19:25;;;;;;;17.43;7.23;;;;;;;41.28;37.93;100883.91;4991789;28;20476;-86
2023/05/26 02:21:51;;;;;;;13.37;5.30;;;;;;;41.40;37.62;100888.66;4992266;28;20932;-85
2023/05/26 02:24:18;;;;;;;13.23;6.30;;;;;;;41.40;37.55;100889.47;4992056;28;20413;-84
2023/05/26 02:26:44;;;;;;;13.77;5.13;;;;;;;41.41;37.71;100892.97;4991686;28;20938;-83
2023/05/26 02:29:11;;;;;;;15.60;5.70;;;;;;;41.31;37.96;100878.59;4991901;28;20521;-84
2023/05/26 02:31:39;;;;;;;22.70;6.10;;;;;;;41.19;38.42;100883.13;4996526;28;20398;-84
2023/05/26 02:34:06;;;;;;;25.53;6.83;;;;;;;41.35;37.70;100881.47;4995810;28;20533;-84
2023/05/26 02:36:33;;;;;;;18.70;5.83;;;;;;;41.34;37.91;100877.16;4995863;28;20455;-84
2023/05/26 02:38:59;;;;;;;15.70;7.20;;;;;;;41.30;37.93;100873.47;4995383;28;20551;-84
2023/05/26 02:41:26;;;;;;;17.23;6.43;;;;;;;41.38;37.80;100869.94;4995623;28;20417;-84
2023/05/26 02:43:52;;;;;;;14.77;6.37;;;;;;;41.41;37.61;100861.09;4995797;28;20556;-83
2023/05/26 02:46:18;;;;;;;14.50;6.77;;;;;;;41.40;37.87;100859.50;4995557;28;20506;-85
2023/05/26 02:48:44;;;;;;;12.37;6.63;;;;;;;41.39;37.99;100873.47;4995571;28;20206;-84
2023/05/26 02:51:10;;;;;;;10.90;6.30;;;;;;;41.38;38.05;100867.22;4995319;28;20492;-84
2023/05/26 02:53:39;;;;;;;13.63;5.63;;;;;;;41.37;38.02;100872.97;4995611;28;20468;-84
2023/05/26 02:56:06;;;;;;;10.67;5.53;;;;;;;41.37;38.00;100867.53;4996918;28;20417;-84
2023/05/26 02:58:32;;;;;;;13.83;6.60;;;;;;;41.40;37.88;100866.88;4998907;28;20848;-84
2023/05/26 03:00:59;;;;;;;15.00;6.63;;;;;;;41.49;37.50;100875.78;4998525;28;20459;-84
2023/05/26 03:03:25;;;;;;;12.97;6.53;;;;;;;41.41;37.82;100879.38;4998482;28;20419;-86
2023/05/26 03:05:51;;;;;;;14.67;5.60;;;;;;;41.44;37.86;100884.16;4998597;28;20431;-86
2023/05/26 03:08:17;;;;;;;15.37;5.90;;;;;;;41.24;38.09;100891.09;4998588;28;20498;-86
2023/05/26 03:10:43;;;;;;;18.87;7.17;;;;;;;41.25;38.45;100889.97;4994838;28;20847;-86
2023/05/26 03:13:10;;;;;;;15.20;8.13;;;;;;;41.36;38.40;100901.31;4995330;28;20583;-86
2023/05/26 03:15:36;;;;;;;15.33;6.57;;;;;;;41.36;38.18;100899.41;4994906;28;20475;-86
2023/05/26 03:18:03;;;;;;;17.27;6.10;;;;;;;41.34;38.20;100897.00;4994996;28;20937;-86
2023/05/26 03:20:29;;;;;;;16.17;6.37;;;;;;;41.40;38.11;100899.56;5002948;28;20964;-84
2023/05/26 03:22:56;;;;;;;17.47;7.10;;;;;;;41.46;38.38;100909.13;4998320;28;20463;-84
2023/05/26 03:25:22;;;;;;;18.13;6.90;;;;;;;41.47;38.24;100903.34;4997979;28;20531;-85
2023/05/26 03:27:48;;;;;;;18.57;6.93;;;;;;;41.42;38.20;100906.25;4997991;28;20427;-84
2023/05/26 03:30:14;;;;;;;13.70;7.17;;;;;;;41.48;38.15;100898.69;4994923;28;21004;-84
2023/05/26 03:32:41;;;;;;;15.70;6.90;;;;;;;41.50;38.13;100904.63;4994761;28;20480;-86
2023/05/26 03:35:07;;;;;;;12.57;7.50;;;;;;;41.51;38.10;100898.03;4994626;28;20445;-86
2023/05/26 03:37:33;;;;;;;19.20;9.17;;;;;;;41.48;37.70;100904.13;4994455;28;20504;-86
2023/05/26 03:39:59;;;;;;;16.23;7.17;;;;;;;41.48;37.59;100904.13;4996579;28;20516;-86
2023/05/26 03:42:25;;;;;;;23.47;9.00;;;;;;;41.53;37.50;100893.06;4996718;28;20467;-86
2023/05/26 03:44:51;;;;;;;13.10;8.03;;;;;;;41.46;37.36;100904.47;4997782;28;20441;-86
2023/05/26 03:47:17;;;;;;;20.87;6.40;;;;;;;41.47;37.54;100899.81;4997569;28;20448;-86
2023/05/26 03:49:43;;;;;;;18.13;8.23;;;;;;;41.46;37.42;100899.03;5000077;28;20409;-86
2023/05/26 03:52:09;;;;;;;20.90;8.40;;;;;;;41.35;37.17;100897.81;4997352;28;20553;-84
2023/05/26 03:54:35;;;;;;;15.33;11.27;;;;;;;41.37;37.51;100902.91;4997913;28;20257;-84
2023/05/26 03:57:01;;;;;;;13.23;8.00;;;;;;;41.42;37.25;100902.72;4997501;28;20421;-84
2023/05/26 03:59:28;;;;;;;14.93;10.00;;;;;;;41.41;36.93;100892.97;4997541;28;20475;-84
2023/05/26 04:01:55;;;;;;;18.67;9.63;;;;;;;41.40;37.21;100891.38;4997271;28;20498;-84
2023/05/26 04:04:21;;;;;;;22.80;10.53;;;;;;;41.38;37.59;100896.38;4997577;28;20952;-84
2023/05/26 04:06:47;;;;;;;15.07;8.57;;;;;;;41.34;37.47;100891.56;4997147;28;20421;-84
2023/05/26 04:09:13;;;;;;;17.93;9.23;;;;;;;41.26;37.15;100878.00;4997205;28;20451;-84
2023/05/26 04:11:39;;;;;;;20.57;10.30;;;;;;;41.31;37.44;100889.50;4993794;28;20429;-86
2023/05/26 04:14:06;;;;;;;22.57;8.87;;;;;;;41.32;37.18;100877.50;4993752;28;20890;-87
2023/05/26 04:16:33;;;;;;;17.60;10.80;;;;;;;41.33;37.26;100875.56;4994269;28;20425;-85
2023/05/26 04:18:59;;;;;;;16.93;9.90;;;;;;;41.39;37.07;100887.06;4994165;28;20421;-85
2023/05/26 04:21:25;;;;;;;16.90;9.13;;;;;;;41.38;37.35;100891.72;4996820;28;20454;-84
2023/05/26 04:23:52;;;;;;;23.57;11.47;;;;;;;41.40;37.40;100896.81;4996811;28;20424;-84
2023/05/26 04:26:18;;;;;;;15.70;9.40;;;;;;;41.34;37.11;100888.84;4997071;28;20523;-84
2023/05/26 04:28:45;;;;;;;19.03;11.10;;;;;;;41.19;37.76;100891.28;4996842;28;20416;-84
2023/05/26 04:31:16;;;;;;;15.97;8.23;;;;;;;41.27;37.55;100891.25;4993566;28;20445;-84
2023/05/26 04:33:45;;;;;;;19.40;10.57;;;;;;;41.24;37.71;100902.00;4993626;28;20469;-84
2023/05/26 04:36:12;;;;;;;20.77;8.43;;;;;;;41.28;37.47;100903.75;4996653;28;20494;-84
2023/05/26 04:38:47;;;;;;;21.30;11.17;;;;;;;41.10;37.84;100906.88;4990237;28;20593;-85
2023/05/26 04:41:13;;;;;;;19.87;11.87;;;;;;;41.05;38.06;100916.00;4982277;28;20995;-86
2023/05/26 04:43:40;;;;;;;21.80;9.70;;;;;;;40.78;38.46;100907.13;4973997;28;20517;-84
2023/05/26 04:46:08;;;;;;;21.67;9.37;;;;;;;40.67;38.51;100911.31;4973978;28;20415;-84
2023/05/26 04:48:36;;;;;;;18.67;10.13;;;;;;;40.86;38.53;100915.59;4974262;28;20426;-84
2023/05/26 04:51:02;;;;;;;13.50;9.33;;;;;;;40.97;38.17;100927.75;4984771;28;20405;-84
2023/05/26 04:53:28;;;;;;;21.03;9.80;;;;;;;40.95;38.12;100930.00;4992938;28;20445;-84
2023/05/26 04:55:54;;;;;;;15.80;10.20;;;;;;;40.86;38.28;100927.25;4993166;28;20484;-84
2023/05/26 04:58:20;;;;;;;19.93;10.73;;;;;;;40.94;38.30;100926.44;4993087;28;20189;-84
2023/05/26 05:00:46;;;;;;;16.70;10.87;;;;;;;40.80;38.47;100921.19;4985578;28;20430;-85
2023/05/26 05:03:12;;;;;;;16.87;9.70;;;;;;;40.84;38.37;100909.69;4973357;28;20473;-84
2023/05/26 05:05:37;;;;;;;24.33;11.27;;;;;;;41.03;37.96;100915.56;4973555;28;20457;-84
2023/05/26 05:08:03;;;;;;;20.50;12.33;;;;;;;41.02;38.43;100917.47;4973647;28;20450;-86
2023/05/26 05:10:29;;;;;;;18.00;10.87;;;;;;;41.00;38.33;100908.81;4978164;28;20430;-86
2023/05/26 05:12:55;;;;;;;21.07;10.60;;;;;;;40.81;38.85;100913.84;4992781;28;20532;-86
2023/05/26 05:15:22;;;;;;;22.57;11.33;;;;;;;40.96;38.85;100913.34;4992917;28;20287;-84
2023/05/26 05:17:48;;;;;;;25.23;11.07;;;;;;;40.80;38.84;100914.97;4993003;28;20272;-84
2023/05/26 05:20:14;;;;;;;17.40;12.37;;;;;;;40.89;38.53;100914.94;4990069;28;20457;-84
2023/05/26 05:22:40;;;;;;;24.93;12.47;;;;;;;40.90;38.70;100919.25;4973303;28;20795;-84
2023/05/26 05:25:06;;;;;;;20.30;12.30;;;;;;;40.94;38.42;100923.72;4974971;28;20414;-84
2023/05/26 05:27:32;;;;;;;24.50;12.77;;;;;;;40.58;39.28;100917.88;4973163;28;20457;-84
2023/05/26 05:29:58;;;;;;;24.83;13.00;;;;;;;40.72;39.36;100910.34;4973350;28;20497;-83
2023/05/26 05:32:24;;;;;;;26.20;13.70;;;;;;;40.79;38.64;100911.44;4992737;28;20181;-84
2023/05/26 05:34:50;;;;;;;33.40;18.03;;;;;;;40.86;38.77;100912.88;4993912;28;20740;-83
2023/05/26 05:37:16;;;;;;;37.23;21.47;;;;;;;40.89;39.06;100923.13;4991511;28;20466;-81
2023/05/26 05:39:42;;;;;;;45.23;23.53;;;;;;;40.97;38.67;100925.81;4992477;28;20431;-81
2023/05/26 05:42:07;;;;;;;40.03;21.47;;;;;;;40.98;38.63;100934.78;4991889;28;20432;-82
2023/05/26 05:44:43;;;;;;;31.53;18.97;;;;;;;41.03;38.41;100935.41;4991790;28;20508;-85
2023/05/26 05:47:26;;;;;;;20.63;17.00;;;;;;;40.99;38.35;100922.75;5001873;28;20836;-80
2023/05/26 05:50:13;;;;;;;20.30;17.83;;;;;;;41.12;38.38;100938.06;5004733;28;20390;-79
2023/05/26 05:52:45;;;;;;;21.40;17.13;;;;;;;40.79;38.74;100922.31;5000209;28;20473;-85
2023/05/26 05:55:13;;;;;;;22.50;16.20;;;;;;;40.89;38.59;100926.63;4992338;28;21040;-88
2023/05/26 05:57:50;;;;;;;27.50;17.07;;;;;;;40.80;38.88;100926.63;4994836;28;20504;-88
2023/05/26 06:00:27;;;;;;;29.20;19.93;;;;;;;40.87;39.12;100938.94;5008366;28;20499;-80
2023/05/26 06:02:59;;;;;;;25.83;16.70;;;;;;;40.86;38.80;100946.31;4994397;28;20441;-88
2023/05/26 06:05:50;;;;;;;28.63;15.23;;;;;;;40.89;38.46;100942.94;4995679;28;20453;-89
2023/05/26 06:08:28;;;;;;;19.37;12.57;;;;;;;40.96;38.50;100954.16;4981715;28;20493;-87
2023/05/26 06:10:57;;;;;;;21.50;12.37;;;;;;;41.09;38.39;100965.94;4978171;28;20432;-87
2023/05/26 06:13:27;;;;;;;26.53;14.10;;;;;;;40.95;38.59;100978.97;4975159;28;20471;-87
2023/05/26 06:15:55;;;;;;;28.50;14.20;;;;;;;41.12;38.11;100981.63;4972505;28;20953;-87
2023/05/26 06:18:21;;;;;;;24.07;11.53;;;;;;;41.12;38.19;100975.38;4976520;28;20519;-86
2023/05/26 06:20:48;;;;;;;25.07;13.07;;;;;;;41.17;37.99;100995.06;5009569;28;20497;-89
2023/05/26 06:23:18;;;;;;;20.40;13.83;;;;;;;41.23;38.11;101006.56;4992417;28;20421;-89
2023/05/26 06:25:49;;;;;;;25.37;13.30;;;;;;;41.21;38.32;101008.81;4991490;28;20425;-89
2023/05/26 06:28:16;;;;;;;24.60;14.60;;;;;;;41.04;38.16;101013.19;4990894;28;20436;-88
2023/05/26 06:30:54;;;;;;;22.10;13.03;;;;;;;41.10;38.41;101019.25;4982392;28;20473;-87
2023/05/26 06:33:21;;;;;;;23.93;15.37;;;;;;;41.18;38.30;101018.41;4989907;28;20457;-88
2023/05/26 06:35:47;;;;;;;20.80;13.17;;;;;;;40.97;38.73;101018.31;4991975;28;20421;-83
2023/05/26 06:38:14;;;;;;;21.87;13.70;;;;;;;41.15;38.22;101024.53;4990678;28;21031;-84
2023/05/26 06:40:40;;;;;;;23.23;15.40;;;;;;;41.14;38.24;101030.31;4991699;28;20981;-84
2023/05/26 06:43:05;;;;;;;20.50;15.03;;;;;;;41.22;38.23;101034.91;4972554;28;20422;-86
2023/05/26 06:45:31;;;;;;;22.03;15.60;;;;;;;41.25;38.29;101035.06;4972087;28;20285;-86
2023/05/26 06:47:57;;;;;;;26.93;15.97;;;;;;;41.24;38.17;101028.00;4972228;28;20454;-86
2023/05/26 06:50:23;;;;;;;23.27;13.97;;;;;;;41.29;38.18;101041.44;4971912;28;20658;-86
2023/05/26 06:52:51;;;;;;;19.20;13.97;;;;;;;41.42;38.07;101033.41;4984173;28;20216;-84
2023/05/26 06:55:17;;;;;;;21.77;13.70;;;;;;;41.42;38.41;101031.50;4992869;28;20181;-86
2023/05/26 06:57:43;;;;;;;23.20;15.80;;;;;;;41.46;38.15;101024.28;4991776;28;20483;-86
2023/05/26 07:00:10;;;;;;;18.83;13.00;;;;;;;41.46;38.17;101031.66;4991620;28;20417;-85
2023/05/26 07:02:36;;;;;;;23.80;16.90;;;;;;;41.50;38.37;101032.59;4988953;28;20822;-85
2023/05/26 07:05:02;;;;;;;30.07;16.33;;;;;;;41.51;38.66;101034.19;4989979;28;20433;-85
2023/05/26 07:07:28;;;;;;;24.43;13.47;;;;;;;41.58;38.84;101040.72;4991504;28;20488;-83
2023/05/26 07:09:53;;;;;;;23.50;14.77;;;;;;;41.64;38.54;101044.06;4991468;28;20776;-86
2023/05/26 07:12:20;;;;;;;25.63;15.20;;;;;;;41.62;38.20;101051.78;4991388;28;20178;-86
2023/05/26 07:14:46;;;;;;;27.07;15.63;;;;;;;41.59;38.75;101055.94;4990915;28;20193;-85
2023/05/26 07:17:12;;;;;;;18.17;10.77;;;;;;;41.67;38.68;101054.28;4990157;28;20791;-86
2023/05/26 07:19:38;;;;;;;17.53;7.73;;;;;;;41.62;38.32;101051.78;4994279;28;20421;-85
2023/05/26 07:22:04;;;;;;;11.20;7.20;;;;;;;41.73;38.50;101052.97;4992937;28;20515;-85
2023/05/26 07:24:30;;;;;;;20.50;7.80;;;;;;;41.63;38.72;101058.81;4993924;28;21068;-85
2023/05/26 07:26:56;;;;;;;18.70;8.40;;;;;;;41.63;38.30;101060.75;4994314;28;20492;-86
2023/05/26 07:29:22;;;;;;;12.83;7.00;;;;;;;41.60;38.68;101062.19;4994915;28;20425;-85
2023/05/26 07:31:48;;;;;;;22.70;7.70;;;;;;;41.66;38.70;101058.13;4994189;28;20416;-85
2023/05/26 07:34:14;;;;;;;16.80;8.57;;;;;;;41.68;38.79;101053.19;4994673;28;20457;-89
2023/05/26 07:36:40;;;;;;;11.60;6.50;;;;;;;41.79;38.47;101054.41;4994689;28;20477;-88
2023/05/26 07:39:06;;;;;;;14.60;6.90;;;;;;;41.60;38.72;101062.97;4994509;28;20900;-86
2023/05/26 07:41:34;;;;;;;16.63;6.47;;;;;;;41.84;38.62;101059.69;4994087;28;20189;-87
2023/05/26 07:44:00;;;;;;;15.80;6.90;;;;;;;41.89;38.74;101063.34;4993744;28;20472;-85
2023/05/26 07:46:26;;;;;;;25.83;7.77;;;;;;;41.85;38.88;101064.00;4993927;28;21021;-86
2023/05/26 07:48:53;;;;;;;20.17;6.73;;;;;;;41.88;38.89;101070.72;4993832;28;20444;-86
2023/05/26 07:51:19;;;;;;;18.43;7.60;;;;;;;41.95;38.58;101078.38;4994201;28;20421;-88
2023/05/26 07:53:45;;;;;;;15.07;6.37;;;;;;;41.88;38.83;101059.03;4993697;28;21076;-86
2023/05/26 07:56:11;;;;;;;24.77;6.07;;;;;;;41.96;38.56;101058.19;4993756;28;20509;-85
2023/05/26 07:58:38;;;;;;;13.90;6.53;;;;;;;41.98;38.35;101061.38;4996605;28;20420;-85
2023/05/26 08:01:06;;;;;;;13.80;6.33;;;;;;;41.80;38.41;101064.19;5009920;28;20198;-86
2023/05/26 08:03:33;;;;;;;17.43;6.20;;;;;;;41.92;38.16;101059.97;4994427;28;20390;-85
2023/05/26 08:05:59;;;;;;;12.23;5.30;;;;;;;41.84;38.19;101059.69;5009392;28;20804;-84
2023/05/26 08:08:26;;;;;;;13.47;7.30;;;;;;;41.74;38.26;101054.63;4992925;28;20926;-86
2023/05/26 08:10:52;;;;;;;16.70;6.53;;;;;;;41.87;38.44;101060.97;4994003;28;20426;-84
2023/05/26 08:13:18;;;;;;;13.77;6.43;;;;;;;41.69;38.41;101045.81;4993698;28;20489;-85
2023/05/26 08:15:44;;;;;;;13.57;6.33;;;;;;;41.85;38.07;101041.41;4993919;28;20516;-85
2023/05/26 08:18:10;;;;;;;21.83;8.60;;;;;;;41.93;38.39;101045.19;4994301;28;20860;-85
2023/05/26 08:20:36;;;;;;;22.60;6.37;;;;;;;41.84;38.41;101048.00;4992474;28;20441;-85
2023/05/26 08:23:03;;;;;;;18.80;7.17;;;;;;;41.77;38.84;101048.50;4978571;28;20418;-86
2023/05/26 08:25:29;;;;;;;24.83;11.47;;;;;;;41.85;38.64;101063.19;4974227;28;20493;-86
2023/05/26 08:27:55;;;;;;;17.83;6.30;;;;;;;41.83;38.76;101066.25;4973824;28;20931;-84
2023/05/26 08:30:21;;;;;;;12.87;7.73;;;;;;;41.97;38.75;101059.78;4974406;28;20430;-85
2023/05/26 08:32:47;;;;;;;17.90;6.93;;;;;;;41.92;38.78;101062.69;4986488;28;20496;-85
2023/05/26 08:35:13;;;;;;;16.27;6.10;;;;;;;42.07;38.49;101059.41;4989910;28;20422;-86
2023/05/26 08:37:39;;;;;;;14.10;6.33;;;;;;;42.07;38.49;101060.19;5000098;28;20233;-82
2023/05/26 08:40:05;;;;;;;17.73;7.97;;;;;;;42.15;38.25;101061.25;4996896;28;20424;-83
2023/05/26 08:42:36;;;;;;;12.70;6.97;;;;;;;42.25;38.13;101060.13;4993538;28;20883;-88
2023/05/26 08:45:02;;;;;;;14.23;6.90;;;;;;;42.31;37.73;101065.03;4995023;28;20421;-88
2023/05/26 08:47:36;;;;;;;21.60;7.20;;;;;;;42.13;38.30;101064.31;4994054;28;20441;-89
2023/05/26 08:50:06;;;;;;;21.37;8.87;;;;;;;42.13;38.26;101079.88;4978885;28;20465;-89
2023/05/26 08:52:32;;;;;;;17.33;6.80;;;;;;;42.40;37.91;101078.59;4984393;28;20436;-86
2023/05/26 08:55:03;;;;;;;16.77;7.53;;;;;;;42.22;37.91;101072.47;4990845;28;20936;-86
2023/05/26 08:57:35;;;;;;;14.93;7.40;;;;;;;42.37;38.02;101063.69;5021308;28;20428;-86
2023/05/26 09:00:12;;;;;;;11.47;6.30;;;;;;;42.50;37.78;101071.94;5016512;28;20523;-90
2023/05/26 09:02:39;;;;;;;14.33;7.40;;;;;;;42.53;37.38;101077.53;5013610;28;20439;-89
2023/05/26 09:05:09;;;;;;;12.90;6.90;;;;;;;42.53;37.25;101082.19;5001799;28;20417;-91
2023/05/26 09:07:41;;;;;;;10.63;6.40;;;;;;;42.42;37.08;101081.81;5003399;28;20436;-91
2023/05/26 09:10:30;;;;;;;19.27;8.07;;;;;;;42.41;37.18;101082.91;4996836;28;21121;-84
2023/05/26 09:13:05;;;;;;;17.53;7.40;;;;;;;42.52;36.87;101083.31;5008952;28;20507;-85
2023/05/26 09:15:31;;;;;;;17.23;6.43;;;;;;;42.67;36.67;101080.03;4994370;28;20407;-86
2023/05/26 09:18:10;;;;;;;12.10;5.67;;;;;;;42.61;36.10;101084.88;4994386;28;20493;-88
2023/05/26 09:20:41;;;;;;;20.70;8.33;;;;;;;42.67;35.99;101082.75;4996020;28;20436;-87
2023/05/26 09:23:07;;;;;;;12.67;7.60;;;;;;;42.62;35.93;101085.69;4992943;28;20878;-87
2023/05/26 09:25:37;;;;;;;14.43;6.13;;;;;;;42.72;35.69;101070.81;4995661;28;20797;-86
2023/05/26 09:28:06;;;;;;;11.10;6.13;;;;;;;42.43;35.95;101066.25;4995879;28;20425;-87
2023/05/26 09:30:40;;;;;;;16.60;5.67;;;;;;;42.49;35.25;101062.19;4995549;28;20428;-86
2023/05/26 09:33:10;;;;;;;18.53;6.30;;;;;;;42.65;35.08;101074.09;4995769;28;20459;-87
2023/05/26 09:35:41;;;;;;;12.97;6.20;;;;;;;42.64;35.38;101062.38;4995997;28;20470;-85
2023/05/26 09:38:09;;;;;;;15.80;6.97;;;;;;;42.51;35.02;101063.44;4995209;28;20487;-87
2023/05/26 09:40:44;;;;;;;15.53;6.10;;;;;;;42.70;35.40;101067.63;4995178;28;20416;-88
2023/05/26 09:43:10;;;;;;;14.03;5.30;;;;;;;42.57;35.53;101067.56;5008687;28;20925;-89
2023/05/26 09:45:38;;;;;;;14.80;5.80;;;;;;;42.67;35.66;101065.59;4995259;28;20494;-88
2023/05/26 09:48:05;;;;;;;13.10;7.40;;;;;;;42.74;35.91;101063.91;5013221;28;20829;-89
2023/05/26 09:50:32;;;;;;;12.33;6.27;;;;;;;42.75;35.50;101062.78;4995845;28;20925;-88
2023/05/26 09:53:01;;;;;;;11.83;6.40;;;;;;;42.78;34.71;101069.47;4995129;28;20508;-88
2023/05/26 09:55:27;;;;;;;11.50;5.30;;;;;;;42.79;34.96;101073.81;4995243;28;20421;-88
2023/05/26 09:57:54;;;;;;;10.60;5.93;;;;;;;42.77;34.14;101074.13;4994592;28;20985;-91
2023/05/26 10:00:22;;;;;;;13.10;5.63;;;;;;;42.69;34.36;101072.28;5012982;28;20452;-88
2023/05/26 10:02:49;;;;;;;12.53;6.53;;;;;;;42.72;34.25;101073.53;5010952;28;20798;-90
2023/05/26 10:05:17;;;;;;;18.00;6.77;;;;;;;42.62;34.21;101086.47;4995503;28;20421;-89
2023/05/26 10:07:43;;;;;;;11.30;5.47;;;;;;;42.70;34.14;101086.72;5011689;28;20425;-90
2023/05/26 10:10:16;;;;;;;9.40;5.43;;;;;;;42.68;34.25;101087.06;4994979;28;20427;-87
2023/05/26 10:12:42;;;;;;;10.27;4.47;;;;;;;42.71;34.13;101083.66;5011890;28;20872;-89
2023/05/26 10:15:10;;;;;;;11.33;5.17;;;;;;;42.74;34.75;101082.22;4994545;28;20439;-90
2023/05/26 10:17:36;;;;;;;10.80;5.73;;;;;;;42.72;33.97;101084.44;5010914;28;20463;-90
2023/05/26 10:20:04;;;;;;;9.83;5.50;;;;;;;42.53;34.39;101071.28;4993644;28;20451;-89
2023/05/26 10:22:50;;;;;;;16.80;6.00;;;;;;;42.72;34.88;101071.59;5011332;28;20413;-88
2023/05/26 10:25:55;;;;;;;18.13;6.60;;;;;;;42.87;34.97;101062.81;4995002;28;20493;-90
2023/05/26 10:28:51;;;;;;;13.20;5.80;;;;;;;42.93;35.44;101069.66;5011724;28;20413;-90
2023/05/26 10:31:31;;;;;;;15.27;6.60;;;;;;;42.78;36.07;101072.19;4992926;28;20992;-89
2023/05/26 10:33:57;;;;;;;10.97;6.47;;;;;;;42.92;35.89;101068.06;4975593;28;20845;-90
2023/05/26 10:36:23;;;;;;;17.57;7.70;;;;;;;42.89;35.65;101066.00;4975778;28;20424;-89
2023/05/26 10:38:52;;;;;;;8.93;4.90;;;;;;;42.86;34.98;101063.94;4971871;28;20474;-90
2023/05/26 10:41:51;;;;;;;9.80;5.83;;;;;;;42.79;35.52;101062.91;4972169;28;20446;-91
2023/05/26 10:44:39;;;;;;;13.23;5.17;;;;;;;42.81;35.50;101072.34;4972316;28;20414;-91
2023/05/26 10:47:05;;;;;;;11.07;6.07;;;;;;;42.91;34.70;101065.69;4971926;28;20899;-91
2023/05/26 10:49:36;;;;;;;10.23;5.80;;;;;;;42.96;35.03;101062.72;4988385;28;20418;-86
2023/05/26 10:52:14;;;;;;;10.03;4.63;;;;;;;42.90;34.53;101064.06;4978300;28;20446;-87
2023/05/26 10:54:44;;;;;;;11.37;6.00;;;;;;;42.95;34.75;101054.88;4995878;28;20848;-92
2023/05/26 10:57:34;;;;;;;12.40;5.90;;;;;;;42.96;34.67;101059.19;4996136;28;20536;-93
2023/05/26 11:00:25;;;;;;;9.60;5.20;;;;;;;42.77;33.84;101052.31;4997094;28;20409;-93
2023/05/26 11:02:53;;;;;;;10.93;4.87;;;;;;;42.84;33.79;101044.38;4993768;28;20580;-92
2023/05/26 11:05:35;;;;;;;15.03;5.23;;;;;;;42.96;33.72;101040.09;4996837;28;20467;-88
2023/05/26 11:08:01;;;;;;;10.83;5.50;;;;;;;42.95;33.89;101033.84;4980850;28;20433;-93
2023/05/26 11:10:58;;;;;;;10.87;5.67;;;;;;;42.88;33.96;101041.78;4976014;28;20425;-88
2023/05/26 11:13:42;;;;;;;12.07;5.50;;;;;;;42.79;34.19;101036.41;4996106;28;20453;-90
2023/05/26 11:16:18;;;;;;;12.83;5.23;;;;;;;42.82;34.09;101033.00;4995145;28;20488;-84
2023/05/26 11:18:56;;;;;;;9.70;4.70;;;;;;;42.87;34.71;101037.47;4996695;28;20407;-84
2023/05/26 11:21:28;;;;;;;10.00;5.30;;;;;;;43.04;34.76;101036.50;4994918;28;20449;-87
2023/05/26 11:23:58;;;;;;;15.13;5.50;;;;;;;42.97;34.85;101030.75;4992054;28;20428;-86
2023/05/26 11:26:27;;;;;;;9.50;4.70;;;;;;;43.11;34.66;101031.28;4994281;28;20424;-88